Time;durP1;ratioP1;P1;durP2;ratioP2;P2;SDS_P1;SDS_P2;PMS_P1;PMS_P2;Temp;Humidity;BMP_temperature;BMP_pressure;BME280_temperature;BME280_humidity;BME280_pressure;Samples;Min_cycle;Max_cycle;Signal;HPM_P1;HPM_P2
2021/03/12 06:02:12;;;;;;;11.90;10.00;;;;;;;2.39;63.86;94978.72;5038201;23;20295;-74
2021/03/12 06:04:37;;;;;;;12.13;10.88;;;;;;;2.54;61.64;94963.91;4865642;29;20060;-74
2021/03/12 06:07:03;;;;;;;11.30;10.20;;;;;;;2.29;63.76;94970.13;4840315;29;20029;-73
2021/03/12 06:09:28;;;;;;;9.60;8.80;;;;;;;0.97;63.93;94979.44;4855206;29;20538;-76
2021/03/12 06:11:55;;;;;;;10.32;9.20;;;;;;;1.88;64.74;94988.69;4823481;29;20400;-76
2021/03/12 06:14:48;;;;;;;10.35;9.35;;;;;;;2.47;62.91;94991.69;4840685;29;20466;-74
2021/03/12 06:17:45;;;;;;;11.55;10.55;;;;;;;2.97;61.47;94989.41;4833504;29;20514;-74
2021/03/12 06:20:15;;;;;;;10.45;9.32;;;;;;;1.33;65.35;94981.00;4856248;29;20095;-75
2021/03/12 06:22:54;;;;;;;10.40;9.30;;;;;;;3.60;62.88;94979.00;4824556;29;20140;-73
2021/03/12 06:25:21;;;;;;;14.77;10.18;;;;;;;6.73;50.53;94992.69;4838993;29;20030;-73
2021/03/12 06:27:47;;;;;;;12.85;8.63;;;;;;;5.78;52.09;94992.19;4854363;29;20045;-74
2021/03/12 06:30:14;;;;;;;10.68;9.73;;;;;;;3.81;52.61;94970.44;4828893;29;20091;-72
2021/03/12 06:32:52;;;;;;;10.32;9.35;;;;;;;3.78;55.95;95016.81;4821707;29;20569;-73
2021/03/12 06:35:22;;;;;;;10.77;9.77;;;;;;;3.93;55.50;94979.66;4835891;29;20480;-73
2021/03/12 06:37:48;;;;;;;13.43;11.88;;;;;;;3.95;56.16;95022.13;4805769;29;20040;-72
2021/03/12 06:40:29;;;;;;;11.25;10.05;;;;;;;2.91;58.33;95016.28;4821622;29;20476;-72
2021/03/12 06:43:09;;;;;;;10.48;9.15;;;;;;;2.30;58.65;95016.94;4819500;29;20026;-74
2021/03/12 06:45:41;;;;;;;15.20;13.25;;;;;;;2.77;58.62;95031.91;4837625;29;20045;-74
2021/03/12 06:48:23;;;;;;;15.30;13.07;;;;;;;2.16;59.24;95032.50;4836378;29;20034;-74
2021/03/12 06:50:57;;;;;;;15.05;11.93;;;;;;;2.51;59.92;95036.50;4835181;29;20026;-74
2021/03/12 06:53:24;;;;;;;13.02;10.80;;;;;;;2.41;59.31;95033.03;4836708;29;20038;-74
2021/03/12 06:55:49;;;;;;;12.45;11.20;;;;;;;1.12;63.32;95057.38;4834322;29;20182;-72
2021/03/12 06:58:15;;;;;;;15.98;14.25;;;;;;;1.18;63.94;95069.66;4821436;29;20138;-72
2021/03/12 07:00:40;;;;;;;15.68;12.80;;;;;;;1.21;63.06;95046.50;4818104;29;20534;-72
2021/03/12 07:03:28;;;;;;;21.70;17.38;;;;;;;1.77;64.30;95060.13;4821379;29;20025;-72
2021/03/12 07:05:55;;;;;;;12.35;11.13;;;;;;;1.48;63.39;95062.31;4835286;29;20037;-72
2021/03/12 07:08:40;;;;;;;12.52;10.63;;;;;;;2.00;61.08;95046.47;4819748;29;20040;-74
2021/03/12 07:11:25;;;;;;;12.70;11.43;;;;;;;2.45;62.38;95062.53;4821045;29;20110;-75
2021/03/12 07:13:52;;;;;;;13.18;11.10;;;;;;;1.84;62.94;95081.72;4803782;29;20526;-75
2021/03/12 07:16:18;;;;;;;15.88;11.48;;;;;;;2.16;62.34;95073.38;4820781;29;20040;-76
2021/03/12 07:18:44;;;;;;;14.95;10.60;;;;;;;2.38;62.01;95071.59;4828174;29;20491;-76
2021/03/12 07:21:10;;;;;;;13.70;12.30;;;;;;;2.23;64.25;95067.69;4833460;29;20017;-75
2021/03/12 07:23:37;;;;;;;14.27;12.77;;;;;;;2.50;62.28;95078.34;4821167;29;20475;-76
2021/03/12 07:26:04;;;;;;;14.13;12.55;;;;;;;3.74;59.70;95113.56;4835021;29;20041;-76
2021/03/12 07:28:29;;;;;;;14.48;12.13;;;;;;;3.38;60.57;95102.00;4838339;29;20041;-74
2021/03/12 07:30:55;;;;;;;14.95;12.25;;;;;;;3.15;61.57;95108.13;4802477;29;20038;-73
2021/03/12 07:33:24;;;;;;;14.75;13.27;;;;;;;2.75;62.91;95102.00;4818251;29;20152;-76
2021/03/12 07:35:49;;;;;;;14.40;12.98;;;;;;;2.56;62.52;95102.59;4817393;29;20413;-75
2021/03/12 07:38:15;;;;;;;15.57;13.95;;;;;;;3.05;62.24;95114.94;4832865;29;20042;-75
2021/03/12 07:40:40;;;;;;;16.55;15.07;;;;;;;4.14;60.61;95106.75;4828051;29;20049;-75
2021/03/12 07:43:07;;;;;;;13.57;12.23;;;;;;;3.75;60.38;95084.47;4836703;29;20029;-75
2021/03/12 07:45:32;;;;;;;14.35;12.95;;;;;;;4.42;58.81;95100.13;4823773;29;20267;-75
2021/03/12 07:47:58;;;;;;;14.52;13.02;;;;;;;3.66;60.03;95103.94;4851793;29;20472;-75
2021/03/12 07:50:25;;;;;;;14.75;13.35;;;;;;;3.79;58.99;95101.16;4823696;29;20034;-73
2021/03/12 07:52:50;;;;;;;16.48;12.82;;;;;;;3.32;60.88;95097.38;4834838;29;20042;-75
2021/03/12 07:55:34;;;;;;;15.20;12.90;;;;;;;3.94;61.02;95094.81;4821057;29;20066;-75
2021/03/12 07:58:00;;;;;;;15.23;13.73;;;;;;;3.98;58.94;95103.06;4840423;29;20471;-73
2021/03/12 08:00:25;;;;;;;15.23;13.45;;;;;;;3.67;60.37;95064.59;4851154;29;20044;-73
2021/03/12 08:02:58;;;;;;;14.07;12.80;;;;;;;4.30;57.42;95085.81;4852481;29;20029;-72
2021/03/12 08:05:31;;;;;;;14.30;12.77;;;;;;;4.83;56.82;95100.91;4840569;29;20045;-71
2021/03/12 08:07:56;;;;;;;15.13;13.23;;;;;;;3.99;58.43;95081.59;4836092;29;20423;-72
2021/03/12 08:10:22;;;;;;;17.20;14.13;;;;;;;4.17;60.96;95088.56;4826194;29;20026;-74
2021/03/12 08:12:49;;;;;;;15.40;13.80;;;;;;;5.22;59.05;95094.88;4822559;29;20041;-73
2021/03/12 08:15:25;;;;;;;17.20;13.57;;;;;;;4.70;57.68;95068.63;4848812;29;20057;-72
2021/03/12 08:17:57;;;;;;;16.70;14.10;;;;;;;5.75;56.71;95054.94;4832246;29;20026;-73
2021/03/12 08:20:36;;;;;;;23.50;15.30;;;;;;;5.35;56.93;95051.78;4835195;29;20037;-72
2021/03/12 08:23:02;;;;;;;18.70;14.77;;;;;;;4.65;59.17;95034.06;4817913;29;20042;-74
2021/03/12 08:25:36;;;;;;;14.38;12.88;;;;;;;5.15;57.43;95027.88;4818200;29;20034;-73
2021/03/12 08:28:07;;;;;;;19.38;13.25;;;;;;;4.50;61.70;95043.06;4835102;29;20034;-70
2021/03/12 08:30:36;;;;;;;13.90;12.55;;;;;;;4.54;59.81;95037.56;4832000;29;20071;-73
2021/03/12 08:33:05;;;;;;;15.00;12.90;;;;;;;5.02;60.14;95019.63;4833929;29;20038;-71
2021/03/12 08:35:39;;;;;;;12.27;11.18;;;;;;;5.57;57.18;95019.84;4832552;29;20113;-71
2021/03/12 08:38:11;;;;;;;12.88;11.30;;;;;;;5.29;58.70;95034.34;4844847;29;20037;-71
2021/03/12 08:40:42;;;;;;;12.38;11.10;;;;;;;5.39;55.36;95001.78;4851457;29;20384;-71
2021/03/12 08:43:14;;;;;;;11.55;10.18;;;;;;;4.71;58.61;95023.28;4814524;29;20114;-71
2021/03/12 08:45:50;;;;;;;10.85;9.85;;;;;;;5.65;55.35;95031.03;4785846;29;20058;-72
2021/03/12 08:48:19;;;;;;;10.98;9.90;;;;;;;5.56;53.85;94974.56;4815242;29;20034;-72
2021/03/12 08:50:54;;;;;;;10.77;9.20;;;;;;;7.49;52.41;95022.13;4817318;29;20413;-73
2021/03/12 08:53:20;;;;;;;11.80;9.27;;;;;;;5.89;58.53;95029.78;4817698;29;20045;-72
2021/03/12 08:55:50;;;;;;;8.98;8.18;;;;;;;6.04;57.72;95021.47;4818102;29;20511;-71
2021/03/12 08:58:28;;;;;;;9.13;8.32;;;;;;;4.98;58.86;95020.84;4803771;29;20034;-73
2021/03/12 09:00:58;;;;;;;8.77;7.97;;;;;;;5.48;55.61;94993.25;4801871;29;20102;-75
2021/03/12 09:03:24;;;;;;;8.85;8.10;;;;;;;5.91;58.04;95020.97;4803881;29;20039;-75
2021/03/12 09:06:10;;;;;;;9.73;8.43;;;;;;;5.90;58.72;95027.09;4818760;29;20030;-75
2021/03/12 09:08:37;;;;;;;9.05;8.25;;;;;;;6.69;54.10;94963.03;4834950;29;20034;-76
2021/03/12 09:11:04;;;;;;;9.57;8.77;;;;;;;7.66;54.34;95013.56;4818184;29;20137;-76
2021/03/12 09:13:30;;;;;;;10.60;9.57;;;;;;;7.87;53.27;95006.25;4802389;29;20081;-76
2021/03/12 09:15:56;;;;;;;9.75;8.95;;;;;;;8.01;53.57;95017.78;4806253;29;20035;-77
2021/03/12 09:18:23;;;;;;;11.13;10.13;;;;;;;8.21;52.46;95002.88;4833463;29;20082;-77
2021/03/12 09:20:59;;;;;;;8.15;7.55;;;;;;;7.73;50.77;95013.75;4829148;29;20079;-74
2021/03/12 09:23:47;;;;;;;9.05;8.30;;;;;;;9.40;49.73;95016.25;4836918;29;20136;-73
2021/03/12 09:26:14;;;;;;;9.20;8.23;;;;;;;7.37;52.96;95008.69;4838722;29;20038;-73
2021/03/12 09:28:40;;;;;;;10.23;8.93;;;;;;;9.11;50.77;95010.75;4840281;29;20075;-74
2021/03/12 09:31:07;;;;;;;10.60;9.70;;;;;;;9.60;50.16;95008.94;4823287;29;20049;-74
2021/03/12 09:33:39;;;;;;;11.68;10.70;;;;;;;9.73;48.69;95021.41;4840462;29;20034;-74
2021/03/12 09:36:26;;;;;;;11.30;10.18;;;;;;;10.10;49.15;95011.28;4853429;29;20412;-74
2021/03/12 09:38:53;;;;;;;9.82;9.07;;;;;;;9.87;48.44;94995.66;4839757;29;20124;-74
2021/03/12 09:41:23;;;;;;;10.05;9.23;;;;;;;9.95;47.85;95003.38;4839715;29;20040;-75
2021/03/12 09:44:11;;;;;;;11.52;10.40;;;;;;;9.70;49.50;95008.75;4825618;29;20535;-74
2021/03/12 09:46:43;;;;;;;10.70;9.80;;;;;;;9.99;48.29;94996.09;4842771;29;20045;-74
2021/03/12 09:49:11;;;;;;;12.07;10.93;;;;;;;9.63;49.85;94953.53;4854056;29;20039;-74
2021/03/12 09:51:37;;;;;;;13.02;11.75;;;;;;;9.95;48.01;94982.69;4824865;29;20132;-75
2021/03/12 09:54:03;;;;;;;11.68;10.60;;;;;;;10.04;47.92;95012.75;4824449;29;20526;-74
2021/03/12 09:56:28;;;;;;;11.55;10.63;;;;;;;9.18;48.63;94987.66;4839863;29;20116;-74
2021/03/12 09:58:53;;;;;;;11.70;10.70;;;;;;;10.06;48.81;94995.28;4823984;29;20034;-75
2021/03/12 10:01:20;;;;;;;11.20;10.23;;;;;;;8.39;52.67;94996.69;4839120;29;20068;-77
2021/03/12 10:03:46;;;;;;;11.70;10.68;;;;;;;10.48;45.67;94976.06;4818494;29;20444;-75
2021/03/12 10:06:12;;;;;;;12.15;11.15;;;;;;;9.95;47.95;94995.63;4843905;29;20034;-74
2021/03/12 10:09:00;;;;;;;11.20;10.30;;;;;;;10.94;46.84;95002.84;4838985;29;20510;-75
2021/03/12 10:11:47;;;;;;;12.85;11.35;;;;;;;10.68;47.38;94989.41;4846575;29;20033;-75
2021/03/12 10:14:38;;;;;;;13.40;12.27;;;;;;;10.06;47.13;94990.09;4843632;29;20057;-75
2021/03/12 10:17:26;;;;;;;14.65;12.00;;;;;;;8.95;49.39;94975.38;4840585;29;20033;-75
2021/03/12 10:20:04;;;;;;;11.90;11.02;;;;;;;9.82;49.14;94951.38;4852435;29;20033;-75
2021/03/12 10:22:43;;;;;;;14.43;12.95;;;;;;;10.61;46.42;94983.28;4854542;29;20025;-75
2021/03/12 10:25:11;;;;;;;11.73;10.83;;;;;;;9.43;45.83;94984.09;4852617;29;20056;-74
2021/03/12 10:27:43;;;;;;;12.68;11.63;;;;;;;8.71;49.73;94975.31;4854337;29;20263;-76
2021/03/12 10:30:23;;;;;;;11.98;10.88;;;;;;;8.12;50.34;94976.25;4855308;29;20039;-77
2021/03/12 10:32:54;;;;;;;12.13;11.00;;;;;;;7.81;51.75;94975.94;4854147;29;20116;-75
2021/03/12 10:35:34;;;;;;;11.93;10.98;;;;;;;7.03;52.54;94973.50;4842434;29;20040;-77
2021/03/12 10:38:00;;;;;;;;;;;;;;;9.30;50.28;94970.84;4840834;29;20097;-77
2021/03/12 10:40:26;;;;;;;15.05;12.48;;;;;;;10.14;49.46;94954.88;4854141;29;20502;-76
2021/03/12 10:42:52;;;;;;;12.88;11.88;;;;;;;10.21;48.00;94966.94;4837570;29;20186;-75
2021/03/12 10:45:29;;;;;;;12.82;11.73;;;;;;;10.34;49.25;94940.53;4838041;29;20112;-75
2021/03/12 10:47:59;;;;;;;12.48;11.45;;;;;;;9.75;48.13;94954.78;4824309;29;20125;-74
2021/03/12 10:50:25;;;;;;;12.70;11.55;;;;;;;9.94;50.90;94918.19;4825222;29;20029;-75
2021/03/12 10:52:50;;;;;;;13.18;11.98;;;;;;;9.70;51.10;94957.84;4857446;29;20112;-78
2021/03/12 10:55:16;;;;;;;12.50;11.27;;;;;;;10.08;48.06;94936.41;4837934;29;20044;-75
2021/03/12 10:57:46;;;;;;;13.68;12.52;;;;;;;10.48;50.95;94929.44;4838650;29;20041;-74
2021/03/12 11:00:21;;;;;;;12.63;11.25;;;;;;;9.66;51.98;94933.31;4824469;29;20041;-78
2021/03/12 11:02:47;;;;;;;13.70;12.43;;;;;;;9.76;51.43;94910.66;4840479;29;20064;-78
2021/03/12 11:05:13;;;;;;;13.73;11.65;;;;;;;10.60;51.91;94935.84;4838631;29;20029;-74
2021/03/12 11:07:42;;;;;;;12.68;11.63;;;;;;;10.45;49.33;94927.19;4837972;29;20037;-75
2021/03/12 11:10:09;;;;;;;13.70;12.50;;;;;;;10.49;51.67;94926.72;4853602;29;20041;-75
2021/03/12 11:12:36;;;;;;;11.32;10.43;;;;;;;9.96;49.77;94875.66;4837979;29;20278;-74
2021/03/12 11:15:04;;;;;;;15.73;14.02;;;;;;;10.31;50.48;94897.66;4853185;29;20045;-75
2021/03/12 11:17:30;;;;;;;15.75;14.15;;;;;;;10.23;53.30;94918.44;4850926;29;20117;-75
2021/03/12 11:19:55;;;;;;;14.73;13.20;;;;;;;10.35;50.05;94901.53;4851211;29;20044;-75
2021/03/12 11:22:20;;;;;;;14.93;12.73;;;;;;;10.46;53.18;94913.28;4831560;29;20581;-74
2021/03/12 11:24:46;;;;;;;14.52;13.20;;;;;;;10.09;52.65;94916.50;4827407;29;20049;-75
2021/03/12 11:27:12;;;;;;;12.55;11.25;;;;;;;9.62;50.63;94913.13;4834895;29;20030;-75
2021/03/12 11:29:37;;;;;;;14.90;13.50;;;;;;;10.20;50.79;94895.47;4823779;29;20034;-74
2021/03/12 11:32:03;;;;;;;13.27;11.75;;;;;;;11.19;50.09;94926.53;4833912;29;20523;-75
2021/03/12 11:34:28;;;;;;;12.43;11.32;;;;;;;9.98;50.97;94897.00;4849653;29;20098;-75
2021/03/12 11:36:54;;;;;;;13.70;12.60;;;;;;;9.88;52.75;94908.53;4807346;29;20034;-76
2021/03/12 11:39:19;;;;;;;14.90;13.45;;;;;;;10.14;53.33;94916.03;4830843;29;20041;-76
2021/03/12 11:41:45;;;;;;;17.20;15.45;;;;;;;9.99;54.16;94916.72;4852434;29;20037;-76
2021/03/12 11:44:10;;;;;;;14.35;12.07;;;;;;;9.65;52.90;94907.63;4830056;29;20037;-76
2021/03/12 11:46:36;;;;;;;17.45;15.68;;;;;;;10.18;53.46;94901.81;4836184;29;20483;-76
2021/03/12 11:49:01;;;;;;;15.30;13.80;;;;;;;9.66;53.30;94894.53;4837645;29;20041;-76
2021/03/12 11:51:27;;;;;;;15.77;14.27;;;;;;;9.89;53.79;94903.16;4836520;29;20541;-75
2021/03/12 11:53:52;;;;;;;16.02;14.43;;;;;;;10.18;52.72;94901.81;4852327;29;20041;-75
2021/03/12 11:56:18;;;;;;;15.15;13.52;;;;;;;9.88;51.45;94898.97;4836835;29;20032;-75
2021/03/12 11:58:43;;;;;;;15.68;14.25;;;;;;;10.81;50.11;94898.97;4852836;29;20033;-76
2021/03/12 12:01:09;;;;;;;15.35;14.02;;;;;;;10.73;51.77;94894.66;4836241;29;20397;-75
2021/03/12 12:03:34;;;;;;;20.48;15.43;;;;;;;10.31;53.60;94878.72;4854170;29;20060;-76
2021/03/12 12:05:59;;;;;;;16.33;14.68;;;;;;;10.37;53.03;94878.06;4821867;29;20034;-76
2021/03/12 12:08:25;;;;;;;15.85;14.35;;;;;;;10.54;53.65;94882.97;4821181;29;20041;-75
2021/03/12 12:10:51;;;;;;;14.63;13.13;;;;;;;10.45;51.74;94865.06;4834780;29;20034;-76
2021/03/12 12:13:16;;;;;;;15.35;13.82;;;;;;;10.50;51.22;94878.28;4835350;29;20038;-75
2021/03/12 12:15:42;;;;;;;16.08;14.50;;;;;;;10.46;51.34;94871.88;4834453;29;20026;-75
2021/03/12 12:18:10;;;;;;;21.27;16.38;;;;;;;10.98;52.63;94869.38;4833406;29;20038;-75
2021/03/12 12:20:42;;;;;;;15.35;13.85;;;;;;;10.56;49.90;94852.50;4818380;29;20098;-75
2021/03/12 12:23:07;;;;;;;14.27;12.90;;;;;;;10.99;50.14;94858.81;4833432;29;20057;-75
2021/03/12 12:25:33;;;;;;;16.08;14.48;;;;;;;10.92;49.63;94844.13;4830559;29;20496;-75
2021/03/12 12:27:58;;;;;;;15.98;14.52;;;;;;;10.03;52.50;94844.75;4825417;29;20690;-76
2021/03/12 12:30:24;;;;;;;16.88;13.93;;;;;;;9.75;51.43;94809.97;4806505;29;20448;-75
2021/03/12 12:32:49;;;;;;;15.27;13.77;;;;;;;10.77;49.84;94838.13;4806175;29;20117;-75
2021/03/12 12:35:15;;;;;;;21.35;19.30;;;;;;;10.91;51.06;94847.72;4836545;29;20392;-75
2021/03/12 12:37:41;;;;;;;22.40;20.02;;;;;;;10.86;50.07;94819.75;4836901;29;20512;-76
2021/03/12 12:40:08;;;;;;;22.23;19.88;;;;;;;10.02;53.09;94828.41;4837136;29;20476;-75
2021/03/12 12:42:33;;;;;;;23.98;20.85;;;;;;;10.82;51.24;94822.88;4822071;29;20026;-75
2021/03/12 12:44:59;;;;;;;20.83;18.60;;;;;;;11.04;50.41;94834.97;4821712;29;20041;-76
2021/03/12 12:47:24;;;;;;;22.55;19.20;;;;;;;10.84;52.00;94810.53;4807049;29;20036;-76
2021/03/12 12:49:50;;;;;;;21.17;18.85;;;;;;;10.34;53.54;94826.66;4821102;29;20068;-76
2021/03/12 12:52:15;;;;;;;23.42;21.13;;;;;;;10.64;52.00;94810.22;4837016;29;20033;-76
2021/03/12 12:54:41;;;;;;;31.17;20.98;;;;;;;10.59;52.05;94821.09;4821769;29;20042;-76
2021/03/12 12:57:08;;;;;;;22.55;20.35;;;;;;;10.67;51.88;94828.00;4806438;29;20034;-76
2021/03/12 12:59:33;;;;;;;21.50;19.27;;;;;;;10.15;51.38;94781.31;4806702;29;20090;-75
2021/03/12 13:01:59;;;;;;;21.80;19.60;;;;;;;10.88;49.97;94814.41;4821395;29;20046;-75
2021/03/12 13:04:24;;;;;;;23.77;21.23;;;;;;;10.69;50.35;94796.75;4834222;29;20037;-75
2021/03/12 13:06:50;;;;;;;24.25;21.25;;;;;;;10.98;49.84;94810.56;4838876;29;20539;-75
2021/03/12 13:09:16;;;;;;;22.05;19.83;;;;;;;10.96;50.48;94801.34;4855976;29;20109;-75
2021/03/12 13:11:41;;;;;;;22.65;20.35;;;;;;;11.16;49.76;94797.28;4838782;29;20056;-76
2021/03/12 13:14:06;;;;;;;22.23;19.90;;;;;;;10.96;49.91;94794.41;4854953;29;20095;-76
2021/03/12 13:16:32;;;;;;;21.20;18.40;;;;;;;10.92;49.72;94789.72;4855433;29;20037;-76
2021/03/12 13:18:57;;;;;;;21.10;18.90;;;;;;;10.71;49.74;94793.00;4849992;29;20514;-75
2021/03/12 13:21:23;;;;;;;22.75;20.27;;;;;;;10.33;50.54;94784.44;4820659;29;20038;-76
2021/03/12 13:23:48;;;;;;;23.55;18.80;;;;;;;10.21;50.70;94767.66;4836553;29;20035;-76
2021/03/12 13:26:14;;;;;;;25.85;20.08;;;;;;;10.68;50.03;94785.59;4820090;29;20469;-76
2021/03/12 13:28:41;;;;;;;22.17;18.27;;;;;;;10.73;50.55;94792.81;4814973;29;20033;-76
2021/03/12 13:31:06;;;;;;;21.23;19.00;;;;;;;10.79;50.01;94784.38;4803127;29;20130;-76
2021/03/12 13:33:32;;;;;;;21.67;19.38;;;;;;;10.20;51.92;94793.75;4816935;29;20501;-76
2021/03/12 13:35:57;;;;;;;20.48;18.05;;;;;;;10.23;51.03;94807.13;4808523;29;20030;-75
2021/03/12 13:38:24;;;;;;;23.70;20.67;;;;;;;9.73;52.34;94791.25;4819866;29;20045;-75
2021/03/12 13:40:50;;;;;;;23.33;20.40;;;;;;;10.00;52.21;94794.16;4849322;29;20021;-75
2021/03/12 13:43:15;;;;;;;23.10;19.73;;;;;;;10.42;51.03;94790.34;4823306;29;20447;-76
2021/03/12 13:45:41;;;;;;;26.98;22.30;;;;;;;10.73;51.99;94780.69;4838494;29;20475;-75
2021/03/12 13:48:08;;;;;;;26.27;18.85;;;;;;;10.34;51.11;94796.38;4838436;29;20468;-75
2021/03/12 13:50:34;;;;;;;24.42;18.67;;;;;;;10.17;52.09;94791.50;4853693;29;20025;-76
2021/03/12 13:53:00;;;;;;;22.13;19.23;;;;;;;10.56;52.24;94798.13;4836098;29;20026;-75
2021/03/12 13:55:25;;;;;;;23.05;20.13;;;;;;;10.38;51.92;94786.47;4819392;29;20415;-76
2021/03/12 13:57:51;;;;;;;40.15;22.33;;;;;;;10.36;52.77;94785.84;4820242;29;20503;-75
2021/03/12 14:00:16;;;;;;;23.00;19.40;;;;;;;10.33;52.30;94789.59;4819827;29;20532;-75
2021/03/12 14:02:43;;;;;;;24.23;18.08;;;;;;;9.94;52.92;94794.03;4835135;29;20141;-75
2021/03/12 14:05:10;;;;;;;21.52;19.17;;;;;;;10.08;52.64;94788.91;4835921;29;20140;-76
2021/03/12 14:07:36;;;;;;;22.25;18.88;;;;;;;9.72;54.43;94790.44;4804800;29;20496;-75
2021/03/12 14:10:01;;;;;;;24.45;19.75;;;;;;;9.89;54.12;94766.06;4820213;29;20029;-75
2021/03/12 14:12:27;;;;;;;25.45;19.77;;;;;;;9.55;55.64;94768.22;4819441;29;20105;-75
2021/03/12 14:14:52;;;;;;;29.42;22.25;;;;;;;9.47;56.27;94763.88;4805148;29;20037;-75
2021/03/12 14:17:18;;;;;;;29.83;21.73;;;;;;;9.16;56.71;94759.63;4834084;29;20045;-76
2021/03/12 14:19:43;;;;;;;25.42;21.92;;;;;;;9.12;55.97;94751.41;4805097;29;20038;-75
2021/03/12 14:22:09;;;;;;;26.92;22.48;;;;;;;8.99;56.18;94766.63;4834856;29;20604;-75
2021/03/12 14:24:35;;;;;;;26.52;21.85;;;;;;;8.70;58.07;94769.75;4821735;29;20117;-76
2021/03/12 14:27:00;;;;;;;24.77;22.08;;;;;;;9.10;57.05;94752.56;4835981;29;20037;-76
2021/03/12 14:29:26;;;;;;;26.33;22.80;;;;;;;9.29;56.96;94775.41;4833991;29;20045;-75
2021/03/12 14:31:51;;;;;;;27.70;24.90;;;;;;;8.81;56.91;94761.69;4836275;29;20026;-74
2021/03/12 14:34:17;;;;;;;31.27;22.73;;;;;;;8.94;56.28;94774.88;4819049;29;20042;-75
2021/03/12 14:36:43;;;;;;;26.00;22.55;;;;;;;9.05;55.66;94757.44;4834543;29;20034;-75
2021/03/12 14:39:08;;;;;;;30.13;23.15;;;;;;;9.18;55.74;94765.47;4828496;29;20073;-75
2021/03/12 14:41:35;;;;;;;34.20;25.13;;;;;;;9.40;55.12;94737.13;4818869;29;20457;-75
2021/03/12 14:44:00;;;;;;;30.40;23.58;;;;;;;8.94;55.71;94735.34;4804164;29;20057;-75
2021/03/12 14:46:25;;;;;;;27.85;22.38;;;;;;;9.31;55.85;94735.50;4834101;29;20105;-75
2021/03/12 14:48:51;;;;;;;42.90;28.25;;;;;;;9.16;55.60;94724.28;4818288;29;20045;-75
2021/03/12 14:51:17;;;;;;;33.70;25.40;;;;;;;9.16;56.08;94750.13;4803833;29;21084;-75
2021/03/12 14:53:45;;;;;;;32.33;25.48;;;;;;;9.01;57.16;94736.28;4834920;29;20046;-75
2021/03/12 14:56:11;;;;;;;30.58;26.25;;;;;;;8.86;55.41;94645.00;4834221;29;20065;-75
2021/03/12 14:58:37;;;;;;;31.08;23.52;;;;;;;9.31;55.95;94719.22;4835454;29;20045;-76
2021/03/12 15:01:03;;;;;;;31.92;26.63;;;;;;;9.48;57.48;94728.50;4803244;29;20118;-75
2021/03/12 15:03:28;;;;;;;37.05;26.85;;;;;;;9.34;56.87;94708.56;4834614;29;20763;-75
2021/03/12 15:05:55;;;;;;;37.15;30.98;;;;;;;9.35;57.53;94717.91;4819007;29;20038;-75
2021/03/12 15:08:21;;;;;;;31.65;27.92;;;;;;;9.29;58.65;94724.56;4804223;29;20036;-76
2021/03/12 15:10:47;;;;;;;32.28;24.88;;;;;;;9.21;59.38;94739.28;4820373;29;20038;-76
2021/03/12 15:13:13;;;;;;;42.72;31.60;;;;;;;9.38;58.88;94725.31;4803360;29;20045;-76
2021/03/12 15:15:38;;;;;;;46.45;30.60;;;;;;;9.19;59.29;94702.47;4834175;29;20029;-75
2021/03/12 15:18:04;;;;;;;45.90;31.05;;;;;;;9.16;58.66;94711.38;4818395;29;20037;-75
2021/03/12 15:20:29;;;;;;;35.25;27.80;;;;;;;9.09;59.92;94725.09;4835495;29;20028;-75
2021/03/12 15:22:55;;;;;;;34.05;26.25;;;;;;;9.29;59.80;94726.31;4818857;29;20049;-75
2021/03/12 15:25:20;;;;;;;32.78;28.88;;;;;;;9.04;59.98;94729.97;4818646;29;20034;-75
2021/03/12 15:27:46;;;;;;;36.00;25.55;;;;;;;9.01;59.59;94713.03;4833600;29;20030;-75
2021/03/12 15:30:12;;;;;;;68.82;27.58;;;;;;;8.98;59.00;94710.81;4833231;29;20580;-75
2021/03/12 15:32:37;;;;;;;57.90;27.17;;;;;;;8.97;60.00;94727.25;4818859;29;20030;-75
2021/03/12 15:35:03;;;;;;;40.28;23.27;;;;;;;9.08;58.91;94715.78;4818125;29;20041;-75
2021/03/12 15:37:29;;;;;;;65.15;41.72;;;;;;;8.96;60.19;94708.38;4818981;29;20472;-75
2021/03/12 15:39:54;;;;;;;39.60;29.63;;;;;;;9.06;59.75;94728.03;4812097;29;20112;-75
2021/03/12 15:42:20;;;;;;;30.40;22.00;;;;;;;8.78;59.70;94692.31;4815687;29;20046;-75
2021/03/12 15:44:45;;;;;;;27.33;22.00;;;;;;;8.95;60.24;94727.44;4815834;29;20034;-75
2021/03/12 15:47:11;;;;;;;32.13;25.23;;;;;;;8.79;59.73;94713.75;4810422;29;20038;-75
2021/03/12 15:49:36;;;;;;;33.25;26.83;;;;;;;8.97;60.04;94720.31;4815450;29;20035;-75
2021/03/12 15:52:03;;;;;;;28.92;24.35;;;;;;;8.97;60.31;94706.59;4814815;29;20034;-75
2021/03/12 15:54:29;;;;;;;38.50;25.05;;;;;;;9.02;60.76;94711.28;4815707;29;20063;-75
2021/03/12 15:56:54;;;;;;;28.33;22.17;;;;;;;8.79;60.98;94719.75;4799264;29;20426;-75
2021/03/12 15:59:20;;;;;;;30.95;25.45;;;;;;;8.68;61.62;94704.59;4815737;29;20046;-75
2021/03/12 16:01:46;;;;;;;31.20;24.73;;;;;;;8.68;61.82;94732.97;4829048;29;20898;-75
2021/03/12 16:04:11;;;;;;;33.50;19.02;;;;;;;8.37;63.41;94714.81;4815922;29;20121;-75
2021/03/12 16:06:37;;;;;;;23.25;18.80;;;;;;;8.10;63.14;94691.09;4799742;29;20179;-75
2021/03/12 16:09:03;;;;;;;23.63;19.13;;;;;;;8.11;63.39;94718.50;4799736;29;20042;-74
2021/03/12 16:11:29;;;;;;;27.85;21.90;;;;;;;8.07;64.74;94724.94;4815520;29;20030;-75
2021/03/12 16:13:54;;;;;;;39.78;25.00;;;;;;;7.88;64.86;94708.81;4799299;29;20581;-75
2021/03/12 16:16:20;;;;;;;38.53;25.88;;;;;;;7.60;65.67;94704.94;4799851;29;20429;-75
2021/03/12 16:18:45;;;;;;;36.22;25.45;;;;;;;7.48;67.16;94715.69;4814537;29;20413;-75
2021/03/12 16:21:12;;;;;;;128.25;91.93;;;;;;;7.26;68.05;94717.88;4815531;29;20043;-75
2021/03/12 16:23:38;;;;;;;188.57;123.60;;;;;;;6.96;68.51;94705.56;4800017;29;20035;-75
2021/03/12 16:26:05;;;;;;;127.38;91.90;;;;;;;6.88;68.42;94723.53;4816232;29;20456;-75
2021/03/12 16:28:30;;;;;;;73.40;50.53;;;;;;;6.65;69.01;94707.81;4815418;29;20037;-74
2021/03/12 16:30:56;;;;;;;52.22;40.47;;;;;;;6.56;69.42;94729.31;4800204;29;20038;-75
2021/03/12 16:33:21;;;;;;;50.90;32.20;;;;;;;6.36;69.90;94722.75;4819699;29;20030;-75
2021/03/12 16:35:47;;;;;;;41.28;33.97;;;;;;;6.46;69.21;94722.66;4817915;29;20072;-74
2021/03/12 16:38:12;;;;;;;66.65;35.05;;;;;;;6.60;67.89;94720.34;4834782;29;20071;-74
2021/03/12 16:40:38;;;;;;;397.17;171.40;;;;;;;6.54;68.16;94717.56;4819236;29;20041;-74
2021/03/12 16:43:04;;;;;;;285.70;118.40;;;;;;;6.41;69.45;94725.69;4822681;29;20033;-76
2021/03/12 16:45:29;;;;;;;110.18;52.08;;;;;;;6.12;70.32;94725.97;4821160;29;20042;-75
2021/03/12 16:47:55;;;;;;;72.18;38.78;;;;;;;5.98;70.28;94710.25;4833870;29;20038;-75
2021/03/12 16:50:20;;;;;;;49.95;29.45;;;;;;;6.02;69.42;94714.16;4828419;29;20090;-75
2021/03/12 16:52:47;;;;;;;47.67;31.33;;;;;;;6.01;69.87;94725.38;4832428;29;20095;-75
2021/03/12 16:55:12;;;;;;;51.30;34.33;;;;;;;6.07;70.07;94738.44;4829269;29;20033;-75
2021/03/12 16:57:38;;;;;;;42.67;29.88;;;;;;;5.77;70.96;94737.06;4832493;29;20034;-74
2021/03/12 17:00:06;;;;;;;36.67;24.17;;;;;;;5.48;71.51;94704.81;4818224;29;20026;-75
2021/03/12 17:02:31;;;;;;;34.78;28.52;;;;;;;5.47;71.46;94728.88;4817534;29;20050;-75
2021/03/12 17:04:57;;;;;;;39.25;27.30;;;;;;;5.36;72.32;94732.47;4802544;29;20500;-75
2021/03/12 17:07:23;;;;;;;32.78;27.20;;;;;;;5.18;72.75;94723.91;4832502;29;20030;-74
2021/03/12 17:09:48;;;;;;;37.78;29.30;;;;;;;5.07;73.20;94722.34;4832935;29;20114;-75
2021/03/12 17:12:14;;;;;;;48.33;32.92;;;;;;;4.93;73.96;94732.28;4835044;29;20034;-75
2021/03/12 17:14:39;;;;;;;35.75;25.38;;;;;;;4.80;74.50;94750.56;4820345;29;20034;-75
2021/03/12 17:17:05;;;;;;;31.85;23.50;;;;;;;4.50;74.65;94727.72;4820772;29;20045;-75
2021/03/12 17:19:30;;;;;;;26.10;20.13;;;;;;;4.67;74.42;94745.75;4805380;29;20046;-75
2021/03/12 17:21:56;;;;;;;29.33;19.83;;;;;;;4.56;74.61;94735.66;4821078;29;20518;-75
2021/03/12 17:24:21;;;;;;;27.52;22.45;;;;;;;4.35;75.66;94749.63;4835697;29;20026;-75
2021/03/12 17:26:47;;;;;;;31.02;24.77;;;;;;;4.22;76.46;94755.03;4836441;29;20038;-75
2021/03/12 17:29:12;;;;;;;35.20;25.83;;;;;;;4.20;76.86;94768.00;4835959;29;20507;-75